Time;durP1;ratioP1;P1;durP2;ratioP2;P2;SDS_P1;SDS_P2;PMS_P1;PMS_P2;Temp;Humidity;BMP_temperature;BMP_pressure;BME280_temperature;BME280_humidity;BME280_pressure;Samples;Min_cycle;Max_cycle;Signal;HPM_P1;HPM_P2
2023/07/28 00:01:36;;;;;;;;;;;;;;;23.96;52.51;100747.56;7397367;19;1450;-41
2023/07/28 00:04:07;;;;;;;;;;;;;;;23.92;52.00;100735.41;7398519;19;1412;-41
2023/07/28 00:06:35;;;;;;;;;;;;;;;23.78;52.76;100734.22;7397180;19;1861;-42
2023/07/28 00:09:03;;;;;;;;;;;;;;;23.85;52.74;100738.94;7397102;19;1259;-41
2023/07/28 00:11:32;;;;;;;;;;;;;;;24.06;52.42;100739.28;7397407;19;1217;-41
2023/07/28 00:14:02;;;;;;;;;;;;;;;23.94;52.45;100733.38;7397799;19;1413;-42
2023/07/28 00:16:31;;;;;;;;;;;;;;;23.88;52.40;100727.81;7396727;19;1859;-42
2023/07/28 00:18:59;;;;;;;;;;;;;;;23.82;51.87;100730.16;7395905;19;1366;-41
2023/07/28 00:21:28;;;;;;;;;;;;;;;23.70;52.19;100728.78;7396867;19;1486;-41
2023/07/28 00:23:57;;;;;;;;;;;;;;;23.65;52.45;100733.84;7396407;19;1333;-41
2023/07/28 00:26:25;;;;;;;;;;;;;;;23.75;52.28;100745.31;7396885;19;1359;-41
2023/07/28 00:28:53;;;;;;;;;;;;;;;23.88;52.17;100735.94;7396082;19;1184;-42
2023/07/28 00:31:24;;;;;;;;;;;;;;;23.78;52.19;100757.69;7397309;19;1163;-42
2023/07/28 00:33:52;;;;;;;;;;;;;;;23.68;52.51;100749.72;7396148;19;1374;-42
2023/07/28 00:36:21;;;;;;;;;;;;;;;23.70;52.63;100736.06;7394907;19;1854;-42
2023/07/28 00:38:49;;;;;;;;;;;;;;;23.77;52.08;100748.72;7396257;19;1402;-42
2023/07/28 00:41:17;;;;;;;;;;;;;;;23.62;52.44;100739.59;7396156;19;1503;-41
2023/07/28 00:43:46;;;;;;;;;;;;;;;23.63;52.40;100747.53;7396603;19;1183;-42
2023/07/28 00:46:14;;;;;;;;;;;;;;;23.58;52.44;100765.22;7396110;19;1529;-42
2023/07/28 00:48:45;;;;;;;;;;;;;;;23.50;52.37;100744.47;7396122;19;1553;-42
2023/07/28 00:51:14;;;;;;;;;;;;;;;23.57;51.94;100756.25;7394616;19;1404;-42
2023/07/28 00:53:43;;;;;;;;;;;;;;;23.46;52.65;100764.69;7395509;19;1223;-41
2023/07/28 00:56:12;;;;;;;;;;;;;;;23.55;52.02;100760.13;7394612;19;1857;-42
2023/07/28 00:58:41;;;;;;;;;;;;;;;23.61;51.72;100759.47;7395695;19;1234;-41
2023/07/28 01:01:09;;;;;;;;;;;;;;;23.56;51.61;100756.44;7395197;19;1579;-41
2023/07/28 01:03:37;;;;;;;;;;;;;;;23.42;52.08;100750.69;7395645;19;1266;-41
2023/07/28 01:06:14;;;;;;;;;;;;;;;23.40;52.52;100822.84;7395550;19;1508;-41
2023/07/28 01:08:45;;;;;;;;;;;;;;;23.51;51.66;100742.59;7395509;19;1441;-41
2023/07/28 01:11:13;;;;;;;;;;;;;;;23.47;52.41;100757.44;7395142;19;1495;-42
2023/07/28 01:13:41;;;;;;;;;;;;;;;23.54;51.48;100736.88;7396577;19;1180;-42
2023/07/28 01:16:10;;;;;;;;;;;;;;;23.34;52.27;100758.75;7394684;19;1849;-42
2023/07/28 01:18:39;;;;;;;;;;;;;;;23.49;52.06;100758.09;7395095;19;1359;-41
2023/07/28 01:21:09;;;;;;;;;;;;;;;23.46;51.81;100761.13;7392737;19;1955;-41
2023/07/28 01:23:44;;;;;;;;;;;;;;;23.48;51.57;100748.34;7394451;19;1383;-42
2023/07/28 01:26:13;;;;;;;;;;;;;;;23.46;51.58;100761.13;7394899;19;1485;-41
2023/07/28 01:28:45;;;;;;;;;;;;;;;23.52;51.23;100763.19;7395844;19;1164;-42
2023/07/28 01:31:13;;;;;;;;;;;;;;;23.42;51.70;100780.34;7394590;19;1497;-41
2023/07/28 01:33:42;;;;;;;;;;;;;;;23.41;51.51;100769.72;7394320;19;1471;-42
2023/07/28 01:36:10;;;;;;;;;;;;;;;23.37;51.52;100779.16;7392919;19;1870;-41
2023/07/28 01:38:38;;;;;;;;;;;;;;;23.43;51.10;100773.09;7394563;19;1967;-42
2023/07/28 01:41:06;;;;;;;;;;;;;;;23.35;51.53;100771.22;7393932;19;1422;-42
2023/07/28 01:43:35;;;;;;;;;;;;;;;23.34;51.80;100784.91;7394694;19;1248;-42
2023/07/28 01:46:06;;;;;;;;;;;;;;;23.31;51.32;100769.88;7394450;19;1531;-41
2023/07/28 01:48:34;;;;;;;;;;;;;;;23.45;51.20;100775.66;7394971;19;1517;-41
2023/07/28 01:51:02;;;;;;;;;;;;;;;23.36;51.12;100772.09;7393918;19;1475;-42
2023/07/28 01:53:30;;;;;;;;;;;;;;;23.31;51.05;100791.44;7394567;19;1299;-41
2023/07/28 01:56:00;;;;;;;;;;;;;;;23.32;51.60;100798.56;7393709;19;1845;-41
2023/07/28 01:58:29;;;;;;;;;;;;;;;23.33;51.42;100777.81;7395530;19;1171;-41
2023/07/28 02:00:57;;;;;;;;;;;;;;;23.27;51.24;100779.28;7393036;19;1381;-41
2023/07/28 02:03:28;;;;;;;;;;;;;;;23.33;50.97;100783.19;7397549;19;1415;-42
2023/07/28 02:05:56;;;;;;;;;;;;;;;23.28;51.47;100794.50;7400908;19;1242;-41
2023/07/28 02:08:24;;;;;;;;;;;;;;;23.27;51.41;100806.28;7401007;19;1846;-41
2023/07/28 02:10:53;;;;;;;;;;;;;;;23.23;51.52;100794.13;7400396;19;1571;-42
2023/07/28 02:13:21;;;;;;;;;;;;;;;23.25;51.32;100797.50;7402623;19;1195;-41
2023/07/28 02:15:49;;;;;;;;;;;;;;;23.26;51.01;100804.59;7400012;19;1862;-41
2023/07/28 02:18:17;;;;;;;;;;;;;;;23.28;50.72;100802.59;7401632;19;1422;-41
2023/07/28 02:20:50;;;;;;;;;;;;;;;23.22;51.25;100808.63;7398265;19;1483;-41
2023/07/28 02:23:18;;;;;;;;;;;;;;;23.19;51.40;100798.16;7398411;19;1520;-41
2023/07/28 02:25:46;;;;;;;;;;;;;;;23.23;50.93;100811.16;7401607;19;1179;-41
2023/07/28 02:28:15;;;;;;;;;;;;;;;23.16;51.15;100793.94;7399985;19;1673;-41
2023/07/28 02:30:43;;;;;;;;;;;;;;;23.19;50.58;100792.75;7400064;19;1417;-42
2023/07/28 02:33:11;;;;;;;;;;;;;;;23.19;50.56;100798.16;7400730;19;1525;-41
2023/07/28 02:35:39;;;;;;;;;;;;;;;23.16;50.31;100814.69;7399619;19;1872;-41
2023/07/28 02:38:10;;;;;;;;;;;;;;;23.16;50.84;100817.38;7399451;19;1460;-41
2023/07/28 02:40:39;;;;;;;;;;;;;;;23.20;50.74;100822.28;7399921;19;1443;-41
2023/07/28 02:43:07;;;;;;;;;;;;;;;23.32;50.52;100819.31;7401554;19;1512;-41
2023/07/28 02:45:35;;;;;;;;;;;;;;;23.27;50.40;100822.47;7399610;19;1398;-41
2023/07/28 02:48:03;;;;;;;;;;;;;;;23.20;49.98;100811.50;7400361;19;1450;-41
2023/07/28 02:50:32;;;;;;;;;;;;;;;23.23;49.74;100813.00;7400321;19;1250;-42
2023/07/28 02:53:00;;;;;;;;;;;;;;;23.15;50.47;100831.84;7400094;19;1501;-42
2023/07/28 02:55:31;;;;;;;;;;;;;;;23.20;50.18;100833.06;7399976;19;1794;-41
2023/07/28 02:57:59;;;;;;;;;;;;;;;23.21;49.97;100842.00;7399632;19;1248;-41
2023/07/28 03:00:27;;;;;;;;;;;;;;;23.35;49.39;100843.25;7399232;19;1242;-42
2023/07/28 03:02:56;;;;;;;;;;;;;;;23.26;49.27;100853.16;7399592;19;1481;-41
2023/07/28 03:05:24;;;;;;;;;;;;;;;22.69;48.75;100758.44;7398932;19;1461;-42
2023/07/28 03:07:52;;;;;;;;;;;;;;;23.17;49.73;100860.34;7399157;19;1384;-42
2023/07/28 03:10:21;;;;;;;;;;;;;;;23.22;49.41;100854.50;7400268;19;1446;-42
2023/07/28 03:12:52;;;;;;;;;;;;;;;23.20;49.22;100857.34;7398400;19;1295;-42
2023/07/28 03:15:21;;;;;;;;;;;;;;;23.14;48.97;100859.81;7397586;19;1560;-41
2023/07/28 03:17:50;;;;;;;;;;;;;;;23.08;49.24;100861.34;7397525;19;1843;-41
2023/07/28 03:20:18;;;;;;;;;;;;;;;22.98;49.38;100863.28;7397605;19;1375;-41
2023/07/28 03:22:47;;;;;;;;;;;;;;;22.96;49.27;100862.56;7398523;19;1584;-41
2023/07/28 03:25:15;;;;;;;;;;;;;;;22.96;49.83;100858.03;7399046;19;1532;-41
2023/07/28 03:27:43;;;;;;;;;;;;;;;23.04;49.00;100857.28;7398544;19;1150;-41
2023/07/28 03:30:14;;;;;;;;;;;;;;;22.94;49.51;100861.88;7397274;19;1519;-41
2023/07/28 03:32:42;;;;;;;;;;;;;;;22.91;49.86;100863.03;7394215;19;1547;-41
2023/07/28 03:35:11;;;;;;;;;;;;;;;22.97;49.90;100858.88;7397704;19;1204;-41
2023/07/28 03:37:39;;;;;;;;;;;;;;;22.98;49.91;100866.81;7396491;19;1849;-41
2023/07/28 03:40:08;;;;;;;;;;;;;;;23.02;49.97;100873.59;7399042;19;1440;-42
2023/07/28 03:42:37;;;;;;;;;;;;;;;22.99;49.62;100865.78;7398470;19;1090;-41
2023/07/28 03:45:05;;;;;;;;;;;;;;;23.00;49.99;100880.13;7398221;19;1632;-41
2023/07/28 03:47:36;;;;;;;;;;;;;;;23.07;49.90;100873.13;7398440;19;1256;-41
2023/07/28 03:50:05;;;;;;;;;;;;;;;23.28;49.70;100861.94;7397688;19;1818;-41
2023/07/28 03:52:33;;;;;;;;;;;;;;;23.35;49.70;100865.66;7397948;19;1545;-41
2023/07/28 03:55:01;;;;;;;;;;;;;;;23.36;49.83;100874.63;7397704;19;1215;-41
2023/07/28 03:57:30;;;;;;;;;;;;;;;23.33;49.71;100870.38;7396611;19;1847;-41
2023/07/28 03:59:58;;;;;;;;;;;;;;;23.38;49.76;100881.53;7397087;19;1370;-41
2023/07/28 04:02:26;;;;;;;;;;;;;;;23.36;49.78;100878.16;7397240;19;1304;-41
2023/07/28 04:04:58;;;;;;;;;;;;;;;23.31;49.57;100877.78;7397587;19;1178;-42
2023/07/28 04:07:27;;;;;;;;;;;;;;;23.34;49.53;100890.97;7397753;19;1391;-41
2023/07/28 04:09:55;;;;;;;;;;;;;;;23.34;49.66;100888.28;7396494;19;1173;-42
2023/07/28 04:12:23;;;;;;;;;;;;;;;23.36;49.63;100882.72;7398523;19;1162;-41
2023/07/28 04:14:52;;;;;;;;;;;;;;;23.37;49.95;100887.94;7396914;19;1520;-41
2023/07/28 04:17:20;;;;;;;;;;;;;;;23.65;49.36;100868.81;7397404;19;1943;-41
2023/07/28 04:19:48;;;;;;;;;;;;;;;23.81;49.32;100882.44;7396384;19;1457;-41
2023/07/28 04:22:21;;;;;;;;;;;;;;;23.61;49.49;100891.75;7396108;19;1543;-42
2023/07/28 04:24:49;;;;;;;;;;;;;;;23.54;49.67;100888.03;7396547;19;1473;-41
2023/07/28 04:27:18;;;;;;;;;;;;;;;23.47;49.42;100886.97;7394777;19;1551;-42
2023/07/28 04:29:46;;;;;;;;;;;;;;;23.45;49.92;100900.63;7394147;19;1655;-41
2023/07/28 04:32:14;;;;;;;;;;;;;;;23.60;49.39;100903.56;7396404;19;1515;-42
2023/07/28 04:34:43;;;;;;;;;;;;;;;23.69;49.37;100902.59;7395265;19;1565;-41
2023/07/28 04:37:11;;;;;;;;;;;;;;;23.67;49.16;100898.34;7339093;19;13560;-42
2023/07/28 04:39:42;;;;;;;;;;;;;;;23.63;49.56;100898.72;7394277;19;1447;-42
2023/07/28 04:42:10;;;;;;;;;;;;;;;23.61;49.63;100900.69;7395039;19;1559;-41
2023/07/28 04:44:39;;;;;;;;;;;;;;;23.62;49.61;100899.69;7395045;19;1466;-42
2023/07/28 04:47:08;;;;;;;;;;;;;;;23.70;49.40;100909.69;7395483;19;1157;-41
2023/07/28 04:49:36;;;;;;;;;;;;;;;23.72;49.33;100902.25;7395212;19;1441;-41
2023/07/28 04:52:05;;;;;;;;;;;;;;;23.92;49.11;100902.88;7392916;19;1535;-41
2023/07/28 04:54:33;;;;;;;;;;;;;;;23.96;49.10;100895.28;7392275;19;1427;-42
2023/07/28 04:57:04;;;;;;;;;;;;;;;23.91;48.98;100895.75;7391760;19;1851;-41
2023/07/28 04:59:32;;;;;;;;;;;;;;;23.88;49.86;100898.81;7394877;19;1955;-41
2023/07/28 05:02:00;;;;;;;;;;;;;;;23.98;49.73;100895.97;7395604;19;1465;-41
2023/07/28 05:04:29;;;;;;;;;;;;;;;23.88;50.59;100903.38;7396315;19;1485;-51
2023/07/28 05:06:57;;;;;;;;;;;;;;;23.92;49.77;100907.44;7395567;19;1371;-41
2023/07/28 05:09:27;;;;;;;;;;;;;;;24.26;49.87;100912.72;7396237;19;1174;-41
2023/07/28 05:11:56;;;;;;;;;;;;;;;24.41;49.56;100904.78;7395094;19;1863;-41
2023/07/28 05:14:27;;;;;;;;;;;;;;;24.38;49.69;100894.31;7395456;19;1184;-41
2023/07/28 05:16:55;;;;;;;;;;;;;;;24.44;49.07;100912.56;7395999;19;1853;-41
2023/07/28 05:19:23;;;;;;;;;;;;;;;24.35;49.27;100906.31;7394555;19;1287;-41
2023/07/28 05:21:52;;;;;;;;;;;;;;;24.53;48.82;100908.91;7394512;19;1974;-51
2023/07/28 05:24:20;;;;;;;;;;;;;;;24.45;49.26;100898.03;7395343;19;1533;-42
2023/07/28 05:26:48;;;;;;;;;;;;;;;24.55;49.15;100898.75;7394333;19;1446;-41
2023/07/28 05:29:17;;;;;;;;;;;;;;;24.58;49.31;100898.41;7394606;19;1521;-41
2023/07/28 05:31:48;;;;;;;;;;;;;;;24.67;49.58;100885.75;7392755;19;1488;-41
2023/07/28 05:34:16;;;;;;;;;;;;;;;24.74;49.54;100902.13;7395002;19;1408;-42
2023/07/28 05:36:45;;;;;;;;;;;;;;;24.76;49.97;100891.97;7393478;19;1846;-42
2023/07/28 05:39:14;;;;;;;;;;;;;;;24.62;49.93;100898.91;7399752;19;1536;-42
2023/07/28 05:41:42;;;;;;;;;;;;;;;24.66;50.52;100915.66;7401056;19;1292;-42
2023/07/28 05:44:10;;;;;;;;;;;;;;;24.77;50.41;100901.78;7401379;19;1294;-43
2023/07/28 05:46:38;;;;;;;;;;;;;;;24.75;50.84;100909.22;7401209;19;1221;-42
2023/07/28 05:49:09;;;;;;;;;;;;;;;24.78;51.07;100911.59;7402587;19;1539;-42
2023/07/28 05:51:38;;;;;;;;;;;;;;;24.94;50.20;100902.59;7399996;19;1415;-42
2023/07/28 05:54:06;;;;;;;;;;;;;;;24.90;50.15;100902.09;7401642;19;1473;-42
2023/07/28 05:56:34;;;;;;;;;;;;;;;24.76;50.60;100909.03;7400795;19;1835;-42
2023/07/28 05:59:02;;;;;;;;;;;;;;;24.92;51.10;100921.72;7401005;19;1652;-42
2023/07/28 06:01:31;;;;;;;;;;;;;;;25.02;51.00;100908.00;7401838;19;1192;-41
2023/07/28 06:04:00;;;;;;;;;;;;;;;24.91;51.09;100914.63;7401169;19;1858;-43
2023/07/28 06:06:31;;;;;;;;;;;;;;;24.77;51.35;100891.81;7400760;19;1510;-42
2023/07/28 06:09:00;;;;;;;;;;;;;;;25.00;51.25;100905.47;7397775;19;1621;-42
2023/07/28 06:11:28;;;;;;;;;;;;;;;25.10;51.28;100907.16;7400896;19;1490;-42
2023/07/28 06:13:57;;;;;;;;;;;;;;;25.38;50.24;100883.25;7401360;19;1282;-42
2023/07/28 06:16:26;;;;;;;;;;;;;;;25.24;50.94;100892.94;7402185;19;1465;-42
2023/07/28 06:18:54;;;;;;;;;;;;;;;25.36;50.85;100906.94;7398098;19;1858;-42
2023/07/28 06:21:22;;;;;;;;;;;;;;;25.26;50.90;100906.28;7400737;19;1292;-41
2023/07/28 06:23:53;;;;;;;;;;;;;;;25.26;50.94;100900.88;7399712;19;1210;-42
2023/07/28 06:26:21;;;;;;;;;;;;;;;25.50;50.40;100897.25;7398504;19;1263;-42
2023/07/28 06:28:50;;;;;;;;;;;;;;;25.40;50.68;100892.03;7401637;19;1322;-42
2023/07/28 06:31:18;;;;;;;;;;;;;;;25.33;50.93;100894.59;7400878;19;1266;-42
2023/07/28 06:33:47;;;;;;;;;;;;;;;25.28;51.30;100890.72;7386999;19;1509;-42
2023/07/28 06:36:15;;;;;;;;;;;;;;;25.28;51.24;100899.69;7400615;19;1473;-41
2023/07/28 06:38:44;;;;;;;;;;;;;;;25.34;50.13;100882.75;7397662;19;1843;-42
2023/07/28 06:41:15;;;;;;;;;;;;;;;25.19;50.61;100885.31;7399501;19;1483;-41
2023/07/28 06:43:43;;;;;;;;;;;;;;;25.21;50.90;100887.84;7399673;19;1475;-41
2023/07/28 06:46:11;;;;;;;;;;;;;;;24.84;50.54;100900.09;7398714;19;1547;-42
2023/07/28 06:48:40;;;;;;;;;;;;;;;24.68;51.52;100886.59;7393187;19;1591;-41
2023/07/28 06:51:09;;;;;;;;;;;;;;;24.57;50.86;100896.72;7384679;19;1961;-41
2023/07/28 06:53:37;;;;;;;;;;;;;;;23.90;50.00;100813.06;7395290;19;1461;-41
2023/07/28 06:56:06;;;;;;;;;;;;;;;24.58;50.43;100879.47;7392439;19;1467;-41
2023/07/28 06:58:37;;;;;;;;;;;;;;;24.81;50.71;100890.47;7394356;19;1838;-41
2023/07/28 07:01:05;;;;;;;;;;;;;;;24.77;50.87;100889.13;7391931;19;1205;-42
2023/07/28 07:03:33;;;;;;;;;;;;;;;24.77;50.35;100886.41;7393138;19;1548;-42
2023/07/28 07:06:01;;;;;;;;;;;;;;;24.85;50.34;100884.69;7393528;19;1341;-42
2023/07/28 07:08:30;;;;;;;;;;;;;;;24.95;49.66;100888.09;7391090;19;1226;-41
2023/07/28 07:10:58;;;;;;;;;;;;;;;24.62;49.82;100890.81;7391419;19;1475;-42
2023/07/28 07:13:26;;;;;;;;;;;;;;;24.51;49.42;100893.84;7391953;19;1165;-42
2023/07/28 07:15:57;;;;;;;;;;;;;;;24.67;50.12;100890.28;7394673;19;1538;-41
2023/07/28 07:18:26;;;;;;;;;;;;;;;24.56;50.61;100895.03;7393227;19;1860;-41
2023/07/28 07:20:54;;;;;;;;;;;;;;;24.50;47.94;100892.13;7389516;19;1722;-41
2023/07/28 07:23:22;;;;;;;;;;;;;;;24.60;47.38;100900.94;7393078;19;1570;-41
2023/07/28 07:25:52;;;;;;;;;;;;;;;24.59;47.68;100893.84;7392509;19;1821;-42
2023/07/28 07:28:20;;;;;;;;;;;;;;;24.68;47.67;100892.00;7392745;19;1025;-41
2023/07/28 07:30:48;;;;;;;;;;;;;;;24.75;47.78;100895.69;7391894;19;1834;-42
2023/07/28 07:33:19;;;;;;;;;;;;;;;24.81;47.36;100892.31;7391993;19;1712;-42
2023/07/28 07:35:47;;;;;;;;;;;;;;;24.81;48.85;100900.44;7391938;19;1425;-41
2023/07/28 07:38:16;;;;;;;;;;;;;;;24.86;49.42;100911.56;7391368;19;1853;-42
2023/07/28 07:40:44;;;;;;;;;;;;;;;24.86;48.18;100899.91;7392229;19;1822;-42
2023/07/28 07:43:18;;;;;;;;;;;;;;;24.77;47.76;100896.34;7393902;19;1277;-42
2023/07/28 07:45:47;;;;;;;;;;;;;;;24.90;48.84;100896.69;7392186;19;1275;-42
2023/07/28 07:48:15;;;;;;;;;;;;;;;25.08;48.55;100888.38;7391559;19;1507;-41
2023/07/28 07:50:46;;;;;;;;;;;;;;;25.12;48.36;100891.59;7390264;19;1474;-41
2023/07/28 07:53:14;;;;;;;;;;;;;;;25.24;48.81;100887.50;7389277;19;1192;-42
2023/07/28 07:55:43;;;;;;;;;;;;;;;25.27;48.69;100875.47;7391241;19;1665;-42
2023/07/28 07:58:11;;;;;;;;;;;;;;;25.22;48.76;100877.88;7390049;19;1861;-42
2023/07/28 08:00:40;;;;;;;;;;;;;;;25.23;48.55;100869.59;7389201;19;1218;-42
2023/07/28 08:03:08;;;;;;;;;;;;;;;25.23;49.00;100864.19;7389105;19;1407;-42
2023/07/28 08:05:38;;;;;;;;;;;;;;;25.12;48.81;100884.28;7389805;19;1337;-42
2023/07/28 08:08:09;;;;;;;;;;;;;;;25.20;49.08;100869.91;7389984;19;1624;-42
2023/07/28 08:10:38;;;;;;;;;;;;;;;25.10;48.17;100870.09;7390076;19;1688;-42
2023/07/28 08:13:06;;;;;;;;;;;;;;;25.09;48.05;100862.16;7391892;19;1247;-42
2023/07/28 08:15:34;;;;;;;;;;;;;;;25.24;47.58;100868.56;7390353;19;1603;-41
2023/07/28 08:18:03;;;;;;;;;;;;;;;25.26;47.75;100869.22;7395911;19;1853;-42
2023/07/28 08:20:31;;;;;;;;;;;;;;;25.33;47.46;100862.13;7395486;19;1144;-42
2023/07/28 08:22:59;;;;;;;;;;;;;;;25.37;45.97;100860.75;7399002;19;1175;-42
2023/07/28 08:25:30;;;;;;;;;;;;;;;25.29;47.70;100885.13;7397599;19;1869;-42
2023/07/28 08:27:58;;;;;;;;;;;;;;;25.27;46.96;100865.53;7397737;19;1711;-42
2023/07/28 08:30:27;;;;;;;;;;;;;;;25.18;47.31;100866.53;7396146;19;1463;-42
2023/07/28 08:32:55;;;;;;;;;;;;;;;24.91;46.30;100873.19;7395980;19;1420;-42
2023/07/28 08:35:24;;;;;;;;;;;;;;;24.84;44.73;100862.22;7398190;19;1161;-42
2023/07/28 08:37:52;;;;;;;;;;;;;;;24.83;46.53;100841.63;7396657;19;1818;-42
2023/07/28 08:40:20;;;;;;;;;;;;;;;25.09;43.01;100851.31;7394276;19;1537;-43
2023/07/28 08:42:53;;;;;;;;;;;;;;;25.19;42.24;100858.25;7396359;19;1204;-42
2023/07/28 08:45:23;;;;;;;;;;;;;;;25.11;43.46;100855.56;7394564;19;1287;-42
2023/07/28 08:47:51;;;;;;;;;;;;;;;25.02;44.96;100851.19;7394071;19;1542;-42
2023/07/28 08:50:20;;;;;;;;;;;;;;;24.99;43.02;100857.78;7394966;19;1195;-42
2023/07/28 08:52:50;;;;;;;;;;;;;;;24.93;42.52;100849.50;7393522;19;1898;-51
2023/07/28 08:55:18;;;;;;;;;;;;;;;24.90;41.98;100858.81;7395934;19;1248;-42
2023/07/28 08:57:47;;;;;;;;;;;;;;;24.96;44.30;100857.28;7396416;19;1858;-42
2023/07/28 09:00:18;;;;;;;;;;;;;;;24.91;42.06;100859.66;7396843;19;1400;-42
2023/07/28 09:02:47;;;;;;;;;;;;;;;25.04;44.13;100859.97;7395764;19;1839;-42
2023/07/28 09:05:19;;;;;;;;;;;;;;;25.05;41.88;100855.41;7395475;19;1369;-42
2023/07/28 09:07:48;;;;;;;;;;;;;;;25.22;42.85;100853.53;7395055;19;1697;-42
2023/07/28 09:10:16;;;;;;;;;;;;;;;25.28;43.73;100837.41;7396889;19;1731;-42
2023/07/28 09:12:47;;;;;;;;;;;;;;;25.25;39.98;100840.50;7401357;19;1031;-42
2023/07/28 09:15:18;;;;;;;;;;;;;;;25.12;41.44;100829.34;7402263;19;1618;-42
2023/07/28 09:17:47;;;;;;;;;;;;;;;25.23;41.51;100850.66;7400831;19;1857;-42
2023/07/28 09:20:17;;;;;;;;;;;;;;;25.25;41.95;100834.22;7398982;19;1955;-42
2023/07/28 09:22:46;;;;;;;;;;;;;;;25.19;42.71;100827.63;7401120;19;1452;-42
2023/07/28 09:25:15;;;;;;;;;;;;;;;25.27;42.70;100846.56;7398831;19;1620;-45
2023/07/28 09:27:44;;;;;;;;;;;;;;;25.17;42.97;100837.78;7400603;19;1524;-45
2023/07/28 09:30:16;;;;;;;;;;;;;;;25.22;43.85;100838.13;7400665;19;1497;-44
2023/07/28 09:32:49;;;;;;;;;;;;;;;25.13;42.34;100844.56;7401687;19;1168;-45
2023/07/28 09:35:17;;;;;;;;;;;;;;;25.13;41.86;100841.88;7400343;19;1628;-44
2023/07/28 09:37:47;;;;;;;;;;;;;;;25.24;41.08;100838.78;7399379;19;1849;-44
2023/07/28 09:40:16;;;;;;;;;;;;;;;25.32;39.86;100827.94;7399753;19;1908;-44
2023/07/28 09:42:49;;;;;;;;;;;;;;;25.29;38.36;100831.00;7401421;19;1521;-44
2023/07/28 09:45:18;;;;;;;;;;;;;;;25.26;39.79;100825.94;7399029;19;1225;-45
2023/07/28 09:47:49;;;;;;;;;;;;;;;25.26;39.57;100817.81;7400111;19;1185;-45
2023/07/28 09:50:18;;;;;;;;;;;;;;;25.28;39.35;100810.34;7400285;19;1504;-45
2023/07/28 09:52:48;;;;;;;;;;;;;;;25.26;40.70;100808.84;7399802;19;1177;-45
2023/07/28 09:55:17;;;;;;;;;;;;;;;25.19;38.83;100811.41;7400913;19;1559;-45
2023/07/28 09:57:48;;;;;;;;;;;;;;;25.22;38.68;100824.59;7401887;19;1258;-55
2023/07/28 10:00:18;;;;;;;;;;;;;;;25.14;38.98;100819.19;7396071;19;1876;-45
2023/07/28 10:02:50;;;;;;;;;;;;;;;25.15;39.31;100812.78;7401863;19;1261;-44
2023/07/28 10:05:18;;;;;;;;;;;;;;;25.30;40.12;100808.31;7400987;19;1427;-44
2023/07/28 10:07:47;;;;;;;;;;;;;;;25.32;40.07;100813.56;7398755;19;1492;-44
2023/07/28 10:10:17;;;;;;;;;;;;;;;25.36;39.65;100818.44;7400399;19;1474;-44
2023/07/28 10:12:48;;;;;;;;;;;;;;;25.30;39.60;100802.91;7399284;19;1615;-44
2023/07/28 10:15:18;;;;;;;;;;;;;;;25.40;37.54;100806.22;7398940;19;1586;-44
2023/07/28 10:17:50;;;;;;;;;;;;;;;25.34;37.78;100809.66;7399174;19;1418;-44
2023/07/28 10:20:34;;;;;;;;;;;;;;;25.38;37.50;100824.50;7398096;19;1904;-44
2023/07/28 10:23:09;;;;;;;;;;;;;;;25.29;38.65;100800.41;7401662;19;1177;-44
2023/07/28 10:25:38;;;;;;;;;;;;;;;25.25;38.63;100802.59;7400248;19;1595;-44
2023/07/28 10:28:07;;;;;;;;;;;;;;;25.34;38.88;100806.94;7400298;19;1580;-45
2023/07/28 10:30:40;;;;;;;;;;;;;;;25.43;39.58;100801.47;7400760;19;1811;-45
2023/07/28 10:33:28;;;;;;;;;;;;;;;25.34;38.92;100798.81;7400656;19;1363;-45
2023/07/28 10:35:56;;;;;;;;;;;;;;;25.37;36.97;100776.81;7399650;19;1616;-45
2023/07/28 10:38:32;;;;;;;;;;;;;;;25.40;39.44;100787.28;7399433;19;1817;-43
2023/07/28 10:41:11;;;;;;;;;;;;;;;25.47;39.66;100794.72;7398721;19;1621;-48
2023/07/28 10:43:39;;;;;;;;;;;;;;;25.44;40.42;100778.81;7398152;19;1304;-45
2023/07/28 10:46:08;;;;;;;;;;;;;;;25.49;40.08;100769.16;7397643;19;1501;-44
2023/07/28 10:48:43;;;;;;;;;;;;;;;25.44;39.00;100768.81;7397907;19;1407;-42
2023/07/28 10:51:12;;;;;;;;;;;;;;;25.36;40.56;100777.00;7395694;19;1871;-42
2023/07/28 10:53:40;;;;;;;;;;;;;;;25.46;39.97;100765.94;7397994;19;1679;-42
2023/07/28 10:56:10;;;;;;;;;;;;;;;25.48;38.05;100748.50;7400099;19;1260;-42
2023/07/28 10:58:39;;;;;;;;;;;;;;;25.43;39.57;100755.47;7400517;19;1837;-42
2023/07/28 11:01:07;;;;;;;;;;;;;;;25.39;39.69;100745.00;7400868;19;1937;-41
2023/07/28 11:03:35;;;;;;;;;;;;;;;25.34;40.35;100744.69;7395033;19;1164;-41
2023/07/28 11:06:06;;;;;;;;;;;;;;;25.44;40.28;100757.16;7397571;19;1871;-41
2023/07/28 11:08:35;;;;;;;;;;;;;;;25.38;41.37;100740.59;7397826;19;1534;-41
2023/07/28 11:11:05;;;;;;;;;;;;;;;25.48;41.73;100761.19;7396989;19;1658;-41
2023/07/28 11:13:34;;;;;;;;;;;;;;;25.53;41.25;100747.97;7398272;19;1352;-41
2023/07/28 11:16:04;;;;;;;;;;;;;;;25.36;41.61;100745.34;7397750;19;1453;-41
2023/07/28 11:18:32;;;;;;;;;;;;;;;25.32;41.54;100743.19;7398590;19;1865;-41
2023/07/28 11:21:00;;;;;;;;;;;;;;;25.25;42.04;100729.53;7396948;19;1612;-42
2023/07/28 11:23:31;;;;;;;;;;;;;;;25.20;42.92;100761.66;7397752;19;1569;-41
2023/07/28 11:25:59;;;;;;;;;;;;;;;25.26;42.61;100725.78;7399429;19;1293;-44
2023/07/28 11:28:28;;;;;;;;;;;;;;;25.44;41.87;100724.66;7399657;19;1146;-41
2023/07/28 11:30:56;;;;;;;;;;;;;;;25.27;42.72;100730.19;7398841;19;1224;-41
2023/07/28 11:33:24;;;;;;;;;;;;;;;25.17;42.96;100726.84;7400314;19;1181;-41
2023/07/28 11:35:53;;;;;;;;;;;;;;;25.25;42.94;100728.66;7396437;19;1445;-41
2023/07/28 11:38:21;;;;;;;;;;;;;;;25.42;41.78;100722.13;7398098;19;1219;-41
2023/07/28 11:40:53;;;;;;;;;;;;;;;25.18;42.77;100726.63;7396593;19;1847;-41
2023/07/28 11:43:21;;;;;;;;;;;;;;;25.35;41.91;100740.13;7399432;19;1573;-41
2023/07/28 11:45:50;;;;;;;;;;;;;;;25.43;41.31;100728.38;7398274;19;1434;-40
2023/07/28 11:48:18;;;;;;;;;;;;;;;25.24;42.44;100719.72;7397229;19;1633;-41
2023/07/28 11:50:47;;;;;;;;;;;;;;;25.33;42.22;100712.41;7397398;19;1378;-41
2023/07/28 11:53:15;;;;;;;;;;;;;;;25.13;42.37;100712.81;7397768;19;1491;-41
2023/07/28 11:55:43;;;;;;;;;;;;;;;25.06;42.48;100716.41;7398312;19;1544;-41
2023/07/28 11:58:14;;;;;;;;;;;;;;;25.12;42.54;100703.00;7397996;19;1169;-41
2023/07/28 12:00:43;;;;;;;;;;;;;;;25.08;42.93;100698.13;7394438;19;1899;-41
2023/07/28 12:03:12;;;;;;;;;;;;;;;25.08;42.86;100688.13;7396022;19;1574;-41
2023/07/28 12:05:40;;;;;;;;;;;;;;;25.15;42.47;100699.13;7398251;19;1501;-41
2023/07/28 12:08:11;;;;;;;;;;;;;;;25.13;42.96;100701.16;7396969;19;1945;-41
2023/07/28 12:10:40;;;;;;;;;;;;;;;25.33;42.30;100678.03;7396660;19;1303;-41
2023/07/28 12:13:09;;;;;;;;;;;;;;;25.14;43.09;100692.84;7397119;19;1235;-41
2023/07/28 12:15:43;;;;;;;;;;;;;;;25.21;43.06;100701.09;7396027;19;2013;-40
2023/07/28 12:18:12;;;;;;;;;;;;;;;25.22;43.36;100688.44;7397091;19;1493;-41
2023/07/28 12:20:42;;;;;;;;;;;;;;;25.25;43.45;100679.94;7395549;19;1845;-41
2023/07/28 12:23:11;;;;;;;;;;;;;;;25.28;44.00;100687.72;7398036;19;1252;-41
2023/07/28 12:25:39;;;;;;;;;;;;;;;25.32;43.85;100683.63;7394883;19;1555;-41
2023/07/28 12:28:08;;;;;;;;;;;;;;;25.31;43.75;100692.78;7394048;19;1464;-41
2023/07/28 12:30:37;;;;;;;;;;;;;;;25.37;44.76;100682.06;7395890;19;1465;-41
2023/07/28 12:33:08;;;;;;;;;;;;;;;25.36;45.10;100674.97;7395614;19;1415;-41
2023/07/28 12:35:37;;;;;;;;;;;;;;;24.79;45.49;100586.03;6867984;19;9999757;-41
2023/07/28 12:38:07;;;;;;;;;;;;;;;25.28;45.89;100669.59;7389275;19;1350;-41
2023/07/28 12:40:36;;;;;;;;;;;;;;;25.26;46.17;100657.28;7387409;19;1841;-41
2023/07/28 12:43:05;;;;;;;;;;;;;;;25.25;46.36;100653.75;7389018;19;1518;-41
2023/07/28 12:45:34;;;;;;;;;;;;;;;25.22;46.36;100647.84;7387500;19;1514;-41
2023/07/28 12:48:03;;;;;;;;;;;;;;;25.24;46.25;100654.75;7387935;19;1353;-41
2023/07/28 12:50:34;;;;;;;;;;;;;;;25.26;46.08;100663.53;7388302;19;1795;-41
2023/07/28 12:53:03;;;;;;;;;;;;;;;25.27;46.10;100662.53;7388710;19;1494;-41
2023/07/28 12:55:32;;;;;;;;;;;;;;;25.22;46.19;100659.50;7387798;19;1838;-41